sensor_id;sensor_type;location;lat;lon;timestamp;P1;durP1;ratioP1;P2;durP2;ratioP2
36593;SDS011;22603;47.900;8.146;2022-09-27T00:02:07;0.43;;;0.43;;
36593;SDS011;22603;47.900;8.146;2022-09-27T00:04:54;0.50;;;0.50;;
36593;SDS011;22603;47.900;8.146;2022-09-27T00:07:42;0.40;;;0.40;;
36593;SDS011;22603;47.900;8.146;2022-09-27T00:10:30;0.53;;;0.40;;
36593;SDS011;22603;47.900;8.146;2022-09-27T00:13:17;0.73;;;0.40;;
36593;SDS011;22603;47.900;8.146;2022-09-27T00:16:04;0.30;;;0.30;;
36593;SDS011;22603;47.900;8.146;2022-09-27T00:18:56;0.43;;;0.43;;
36593;SDS011;22603;47.900;8.146;2022-09-27T00:21:44;1.60;;;0.50;;
36593;SDS011;22603;47.900;8.146;2022-09-27T00:24:32;0.43;;;0.43;;
36593;SDS011;22603;47.900;8.146;2022-09-27T00:27:19;3.00;;;0.30;;
36593;SDS011;22603;47.900;8.146;2022-09-27T00:30:06;0.40;;;0.40;;
36593;SDS011;22603;47.900;8.146;2022-09-27T00:32:54;1.07;;;0.50;;
36593;SDS011;22603;47.900;8.146;2022-09-27T00:35:42;0.30;;;0.30;;
36593;SDS011;22603;47.900;8.146;2022-09-27T00:38:29;0.30;;;0.30;;
36593;SDS011;22603;47.900;8.146;2022-09-27T00:41:17;0.30;;;0.30;;
36593;SDS011;22603;47.900;8.146;2022-09-27T00:47:26;0.37;;;0.37;;
36593;SDS011;22603;47.900;8.146;2022-09-27T00:50:23;0.37;;;0.30;;
36593;SDS011;22603;47.900;8.146;2022-09-27T00:53:17;2.23;;;0.57;;
36593;SDS011;22603;47.900;8.146;2022-09-27T00:56:07;0.30;;;0.30;;
36593;SDS011;22603;47.900;8.146;2022-09-27T00:58:58;0.30;;;0.30;;
36593;SDS011;22603;47.900;8.146;2022-09-27T01:01:49;1.47;;;0.37;;
36593;SDS011;22603;47.900;8.146;2022-09-27T01:04:37;0.30;;;0.30;;
36593;SDS011;22603;47.900;8.146;2022-09-27T01:07:24;0.30;;;0.30;;
36593;SDS011;22603;47.900;8.146;2022-09-27T01:10:12;2.03;;;0.40;;
36593;SDS011;22603;47.900;8.146;2022-09-27T01:13:03;0.50;;;0.50;;
36593;SDS011;22603;47.900;8.146;2022-09-27T01:15:56;0.40;;;0.40;;
36593;SDS011;22603;47.900;8.146;2022-09-27T01:18:53;0.63;;;0.40;;
36593;SDS011;22603;47.900;8.146;2022-09-27T01:21:54;0.50;;;0.50;;
36593;SDS011;22603;47.900;8.146;2022-09-27T01:24:54;0.60;;;0.60;;
36593;SDS011;22603;47.900;8.146;2022-09-27T01:28:05;1.43;;;0.50;;
36593;SDS011;22603;47.900;8.146;2022-09-27T01:31:05;0.40;;;0.40;;
36593;SDS011;22603;47.900;8.146;2022-09-27T01:33:59;1.40;;;0.60;;
36593;SDS011;22603;47.900;8.146;2022-09-27T01:36:51;0.83;;;0.47;;
36593;SDS011;22603;47.900;8.146;2022-09-27T01:39:44;0.33;;;0.33;;
36593;SDS011;22603;47.900;8.146;2022-09-27T01:42:36;0.30;;;0.30;;
36593;SDS011;22603;47.900;8.146;2022-09-27T01:45:30;0.37;;;0.37;;
36593;SDS011;22603;47.900;8.146;2022-09-27T01:48:23;0.87;;;0.60;;
36593;SDS011;22603;47.900;8.146;2022-09-27T01:51:17;1.13;;;0.50;;
36593;SDS011;22603;47.900;8.146;2022-09-27T01:54:08;0.47;;;0.40;;
36593;SDS011;22603;47.900;8.146;2022-09-27T01:56:57;0.30;;;0.30;;
36593;SDS011;22603;47.900;8.146;2022-09-27T01:59:46;0.83;;;0.50;;
36593;SDS011;22603;47.900;8.146;2022-09-27T02:02:39;0.30;;;0.30;;
36593;SDS011;22603;47.900;8.146;2022-09-27T02:05:34;2.97;;;0.40;;
36593;SDS011;22603;47.900;8.146;2022-09-27T02:08:27;1.90;;;0.57;;
36593;SDS011;22603;47.900;8.146;2022-09-27T02:11:20;0.40;;;0.40;;
36593;SDS011;22603;47.900;8.146;2022-09-27T02:14:07;0.97;;;0.43;;
36593;SDS011;22603;47.900;8.146;2022-09-27T02:17:04;1.10;;;0.50;;
36593;SDS011;22603;47.900;8.146;2022-09-27T02:20:02;1.10;;;0.60;;
36593;SDS011;22603;47.900;8.146;2022-09-27T02:23:01;3.80;;;0.60;;
36593;SDS011;22603;47.900;8.146;2022-09-27T02:25:56;2.03;;;0.50;;
36593;SDS011;22603;47.900;8.146;2022-09-27T02:28:46;0.50;;;0.50;;
36593;SDS011;22603;47.900;8.146;2022-09-27T02:31:40;1.10;;;0.70;;
36593;SDS011;22603;47.900;8.146;2022-09-27T02:34:28;0.80;;;0.60;;
36593;SDS011;22603;47.900;8.146;2022-09-27T02:37:17;1.63;;;0.47;;
36593;SDS011;22603;47.900;8.146;2022-09-27T02:40:06;0.77;;;0.63;;
36593;SDS011;22603;47.900;8.146;2022-09-27T02:42:54;1.33;;;0.90;;
36593;SDS011;22603;47.900;8.146;2022-09-27T02:45:43;4.47;;;0.70;;
36593;SDS011;22603;47.900;8.146;2022-09-27T02:48:40;0.60;;;0.50;;
36593;SDS011;22603;47.900;8.146;2022-09-27T02:51:41;2.27;;;0.70;;
36593;SDS011;22603;47.900;8.146;2022-09-27T02:54:34;1.57;;;0.73;;
36593;SDS011;22603;47.900;8.146;2022-09-27T02:57:32;1.73;;;0.60;;
36593;SDS011;22603;47.900;8.146;2022-09-27T03:00:27;1.90;;;0.60;;
36593;SDS011;22603;47.900;8.146;2022-09-27T03:03:19;1.93;;;0.50;;
36593;SDS011;22603;47.900;8.146;2022-09-27T03:06:09;2.53;;;0.53;;
36593;SDS011;22603;47.900;8.146;2022-09-27T03:08:59;0.40;;;0.40;;
36593;SDS011;22603;47.900;8.146;2022-09-27T03:11:46;0.50;;;0.50;;
36593;SDS011;22603;47.900;8.146;2022-09-27T03:14:34;5.00;;;0.53;;
36593;SDS011;22603;47.900;8.146;2022-09-27T03:17:21;0.50;;;0.50;;
36593;SDS011;22603;47.900;8.146;2022-09-27T03:20:08;0.43;;;0.37;;
36593;SDS011;22603;47.900;8.146;2022-09-27T03:22:55;0.40;;;0.40;;
36593;SDS011;22603;47.900;8.146;2022-09-27T03:25:42;0.63;;;0.43;;
36593;SDS011;22603;47.900;8.146;2022-09-27T03:28:30;0.43;;;0.40;;
36593;SDS011;22603;47.900;8.146;2022-09-27T03:31:18;0.50;;;0.40;;
36593;SDS011;22603;47.900;8.146;2022-09-27T03:34:05;2.00;;;0.50;;
36593;SDS011;22603;47.900;8.146;2022-09-27T03:36:52;0.73;;;0.50;;
36593;SDS011;22603;47.900;8.146;2022-09-27T03:39:39;0.70;;;0.40;;
36593;SDS011;22603;47.900;8.146;2022-09-27T03:42:26;0.70;;;0.40;;
36593;SDS011;22603;47.900;8.146;2022-09-27T03:45:12;1.03;;;0.50;;
36593;SDS011;22603;47.900;8.146;2022-09-27T03:48:01;0.40;;;0.40;;
36593;SDS011;22603;47.900;8.146;2022-09-27T03:50:49;0.50;;;0.50;;
36593;SDS011;22603;47.900;8.146;2022-09-27T03:53:36;0.67;;;0.50;;
36593;SDS011;22603;47.900;8.146;2022-09-27T03:56:23;0.70;;;0.50;;
36593;SDS011;22603;47.900;8.146;2022-09-27T03:59:10;0.53;;;0.33;;
36593;SDS011;22603;47.900;8.146;2022-09-27T04:01:58;0.40;;;0.40;;
36593;SDS011;22603;47.900;8.146;2022-09-27T04:04:47;0.30;;;0.30;;
36593;SDS011;22603;47.900;8.146;2022-09-27T04:07:34;2.80;;;0.73;;
36593;SDS011;22603;47.900;8.146;2022-09-27T04:10:21;0.63;;;0.40;;
36593;SDS011;22603;47.900;8.146;2022-09-27T04:13:08;2.20;;;0.60;;
36593;SDS011;22603;47.900;8.146;2022-09-27T04:15:55;0.40;;;0.40;;
36593;SDS011;22603;47.900;8.146;2022-09-27T04:18:41;3.33;;;0.87;;
36593;SDS011;22603;47.900;8.146;2022-09-27T04:21:30;0.83;;;0.53;;
36593;SDS011;22603;47.900;8.146;2022-09-27T04:24:17;0.30;;;0.30;;
36593;SDS011;22603;47.900;8.146;2022-09-27T04:27:04;0.60;;;0.60;;
36593;SDS011;22603;47.900;8.146;2022-09-27T04:29:51;0.63;;;0.50;;
36593;SDS011;22603;47.900;8.146;2022-09-27T04:32:39;2.53;;;0.60;;
36593;SDS011;22603;47.900;8.146;2022-09-27T04:35:27;1.17;;;0.50;;
36593;SDS011;22603;47.900;8.146;2022-09-27T04:38:32;0.40;;;0.30;;
36593;SDS011;22603;47.900;8.146;2022-09-27T04:41:20;0.30;;;0.30;;
36593;SDS011;22603;47.900;8.146;2022-09-27T04:44:08;0.30;;;0.30;;
36593;SDS011;22603;47.900;8.146;2022-09-27T04:46:55;0.40;;;0.40;;
36593;SDS011;22603;47.900;8.146;2022-09-27T04:49:43;0.50;;;0.40;;
36593;SDS011;22603;47.900;8.146;2022-09-27T04:52:29;0.30;;;0.30;;
36593;SDS011;22603;47.900;8.146;2022-09-27T04:55:18;0.30;;;0.30;;
36593;SDS011;22603;47.900;8.146;2022-09-27T04:58:06;0.20;;;0.20;;
36593;SDS011;22603;47.900;8.146;2022-09-27T05:00:53;0.30;;;0.30;;
36593;SDS011;22603;47.900;8.146;2022-09-27T05:03:40;0.30;;;0.30;;
36593;SDS011;22603;47.900;8.146;2022-09-27T05:06:27;0.20;;;0.20;;
36593;SDS011;22603;47.900;8.146;2022-09-27T05:09:14;0.20;;;0.20;;
36593;SDS011;22603;47.900;8.146;2022-09-27T05:12:02;0.40;;;0.40;;
36593;SDS011;22603;47.900;8.146;2022-09-27T05:14:52;1.33;;;0.60;;
36593;SDS011;22603;47.900;8.146;2022-09-27T05:17:39;0.73;;;0.57;;
36593;SDS011;22603;47.900;8.146;2022-09-27T05:20:25;1.43;;;0.53;;
36593;SDS011;22603;47.900;8.146;2022-09-27T05:23:13;0.40;;;0.40;;
36593;SDS011;22603;47.900;8.146;2022-09-27T05:26:02;1.20;;;0.60;;
36593;SDS011;22603;47.900;8.146;2022-09-27T05:28:50;1.80;;;0.50;;
36593;SDS011;22603;47.900;8.146;2022-09-27T05:31:37;1.90;;;0.70;;
36593;SDS011;22603;47.900;8.146;2022-09-27T05:34:24;0.30;;;0.30;;
36593;SDS011;22603;47.900;8.146;2022-09-27T05:37:11;0.37;;;0.37;;
36593;SDS011;22603;47.900;8.146;2022-09-27T05:39:58;0.60;;;0.40;;
36593;SDS011;22603;47.900;8.146;2022-09-27T05:43:01;0.30;;;0.30;;
36593;SDS011;22603;47.900;8.146;2022-09-27T05:45:49;1.97;;;0.50;;
36593;SDS011;22603;47.900;8.146;2022-09-27T05:48:37;1.90;;;0.70;;
36593;SDS011;22603;47.900;8.146;2022-09-27T05:51:24;10.17;;;0.57;;
36593;SDS011;22603;47.900;8.146;2022-09-27T05:54:10;0.90;;;0.63;;
36593;SDS011;22603;47.900;8.146;2022-09-27T05:56:57;0.63;;;0.50;;
36593;SDS011;22603;47.900;8.146;2022-09-27T05:59:45;1.27;;;0.60;;
36593;SDS011;22603;47.900;8.146;2022-09-27T06:02:34;0.30;;;0.30;;
36593;SDS011;22603;47.900;8.146;2022-09-27T06:05:21;0.47;;;0.40;;
36593;SDS011;22603;47.900;8.146;2022-09-27T06:08:09;0.97;;;0.50;;
36593;SDS011;22603;47.900;8.146;2022-09-27T06:10:59;0.50;;;0.50;;
36593;SDS011;22603;47.900;8.146;2022-09-27T06:13:48;0.30;;;0.30;;
36593;SDS011;22603;47.900;8.146;2022-09-27T06:16:37;0.50;;;0.50;;
36593;SDS011;22603;47.900;8.146;2022-09-27T06:19:25;0.33;;;0.33;;
36593;SDS011;22603;47.900;8.146;2022-09-27T06:22:12;0.60;;;0.37;;
36593;SDS011;22603;47.900;8.146;2022-09-27T06:24:59;0.30;;;0.30;;
36593;SDS011;22603;47.900;8.146;2022-09-27T06:27:48;0.40;;;0.40;;
36593;SDS011;22603;47.900;8.146;2022-09-27T06:30:36;0.33;;;0.33;;
36593;SDS011;22603;47.900;8.146;2022-09-27T06:33:25;0.50;;;0.43;;
36593;SDS011;22603;47.900;8.146;2022-09-27T06:36:14;0.40;;;0.40;;
36593;SDS011;22603;47.900;8.146;2022-09-27T06:39:06;0.77;;;0.40;;
36593;SDS011;22603;47.900;8.146;2022-09-27T06:41:53;0.40;;;0.40;;
36593;SDS011;22603;47.900;8.146;2022-09-27T06:44:41;0.67;;;0.50;;
36593;SDS011;22603;47.900;8.146;2022-09-27T06:47:34;0.57;;;0.57;;
36593;SDS011;22603;47.900;8.146;2022-09-27T06:50:21;1.40;;;0.50;;
36593;SDS011;22603;47.900;8.146;2022-09-27T06:53:10;0.90;;;0.60;;
36593;SDS011;22603;47.900;8.146;2022-09-27T06:55:58;0.73;;;0.40;;
36593;SDS011;22603;47.900;8.146;2022-09-27T06:58:46;1.47;;;0.60;;
36593;SDS011;22603;47.900;8.146;2022-09-27T07:01:50;3.67;;;0.63;;
36593;SDS011;22603;47.900;8.146;2022-09-27T07:04:37;0.60;;;0.60;;
36593;SDS011;22603;47.900;8.146;2022-09-27T07:07:24;0.50;;;0.50;;
36593;SDS011;22603;47.900;8.146;2022-09-27T07:10:12;1.07;;;0.57;;
36593;SDS011;22603;47.900;8.146;2022-09-27T07:13:02;1.27;;;0.70;;
36593;SDS011;22603;47.900;8.146;2022-09-27T07:15:51;0.70;;;0.60;;
36593;SDS011;22603;47.900;8.146;2022-09-27T07:18:38;0.40;;;0.40;;
36593;SDS011;22603;47.900;8.146;2022-09-27T07:21:26;0.40;;;0.40;;
36593;SDS011;22603;47.900;8.146;2022-09-27T07:24:12;0.63;;;0.50;;
36593;SDS011;22603;47.900;8.146;2022-09-27T07:27:01;0.90;;;0.60;;
36593;SDS011;22603;47.900;8.146;2022-09-27T07:29:48;1.40;;;0.70;;
36593;SDS011;22603;47.900;8.146;2022-09-27T07:32:37;0.80;;;0.40;;
36593;SDS011;22603;47.900;8.146;2022-09-27T07:35:25;3.23;;;1.20;;
36593;SDS011;22603;47.900;8.146;2022-09-27T07:38:12;3.40;;;1.20;;
36593;SDS011;22603;47.900;8.146;2022-09-27T07:41:04;1.30;;;0.70;;
36593;SDS011;22603;47.900;8.146;2022-09-27T07:43:53;3.03;;;1.00;;
36593;SDS011;22603;47.900;8.146;2022-09-27T07:46:41;2.93;;;1.20;;
36593;SDS011;22603;47.900;8.146;2022-09-27T07:49:27;4.60;;;1.30;;
36593;SDS011;22603;47.900;8.146;2022-09-27T07:52:15;2.83;;;1.13;;
36593;SDS011;22603;47.900;8.146;2022-09-27T07:55:02;1.80;;;1.07;;
36593;SDS011;22603;47.900;8.146;2022-09-27T07:57:49;6.00;;;2.20;;
36593;SDS011;22603;47.900;8.146;2022-09-27T08:00:37;1.97;;;0.90;;
36593;SDS011;22603;47.900;8.146;2022-09-27T08:03:25;4.10;;;1.00;;
36593;SDS011;22603;47.900;8.146;2022-09-27T08:06:12;2.27;;;1.07;;
36593;SDS011;22603;47.900;8.146;2022-09-27T08:08:59;5.43;;;1.20;;
36593;SDS011;22603;47.900;8.146;2022-09-27T08:11:47;3.83;;;0.90;;
36593;SDS011;22603;47.900;8.146;2022-09-27T08:14:33;1.73;;;0.90;;
36593;SDS011;22603;47.900;8.146;2022-09-27T08:17:30;1.70;;;0.90;;
36593;SDS011;22603;47.900;8.146;2022-09-27T08:20:18;0.97;;;0.73;;
36593;SDS011;22603;47.900;8.146;2022-09-27T08:23:04;1.40;;;0.87;;
36593;SDS011;22603;47.900;8.146;2022-09-27T08:25:51;2.77;;;1.00;;
36593;SDS011;22603;47.900;8.146;2022-09-27T08:28:38;0.90;;;0.70;;
36593;SDS011;22603;47.900;8.146;2022-09-27T08:31:25;2.40;;;0.80;;
36593;SDS011;22603;47.900;8.146;2022-09-27T08:34:13;1.43;;;0.63;;
36593;SDS011;22603;47.900;8.146;2022-09-27T08:37:00;3.30;;;0.83;;
36593;SDS011;22603;47.900;8.146;2022-09-27T08:39:47;1.57;;;0.80;;
36593;SDS011;22603;47.900;8.146;2022-09-27T08:42:35;1.40;;;0.63;;
36593;SDS011;22603;47.900;8.146;2022-09-27T08:45:29;3.63;;;1.10;;
36593;SDS011;22603;47.900;8.146;2022-09-27T08:48:20;1.97;;;0.80;;
36593;SDS011;22603;47.900;8.146;2022-09-27T08:51:11;1.43;;;0.87;;
36593;SDS011;22603;47.900;8.146;2022-09-27T08:54:00;2.10;;;0.70;;
36593;SDS011;22603;47.900;8.146;2022-09-27T08:56:51;1.13;;;0.70;;
36593;SDS011;22603;47.900;8.146;2022-09-27T08:59:41;4.13;;;0.97;;
36593;SDS011;22603;47.900;8.146;2022-09-27T09:02:33;0.93;;;0.80;;
36593;SDS011;22603;47.900;8.146;2022-09-27T09:05:31;1.40;;;0.73;;
36593;SDS011;22603;47.900;8.146;2022-09-27T09:08:27;1.37;;;0.90;;
36593;SDS011;22603;47.900;8.146;2022-09-27T09:11:31;1.03;;;0.70;;
36593;SDS011;22603;47.900;8.146;2022-09-27T09:14:57;1.43;;;0.63;;
36593;SDS011;22603;47.900;8.146;2022-09-27T09:18:13;3.80;;;0.80;;
36593;SDS011;22603;47.900;8.146;2022-09-27T09:21:10;1.20;;;0.83;;
36593;SDS011;22603;47.900;8.146;2022-09-27T09:24:09;1.97;;;0.90;;
36593;SDS011;22603;47.900;8.146;2022-09-27T09:27:11;2.30;;;0.70;;
36593;SDS011;22603;47.900;8.146;2022-09-27T09:30:04;0.67;;;0.50;;
36593;SDS011;22603;47.900;8.146;2022-09-27T09:33:10;0.60;;;0.60;;
36593;SDS011;22603;47.900;8.146;2022-09-27T09:36:08;1.30;;;0.70;;
36593;SDS011;22603;47.900;8.146;2022-09-27T09:39:02;1.00;;;0.60;;
36593;SDS011;22603;47.900;8.146;2022-09-27T09:42:00;1.90;;;0.70;;
36593;SDS011;22603;47.900;8.146;2022-09-27T09:44:54;1.10;;;0.70;;
36593;SDS011;22603;47.900;8.146;2022-09-27T09:47:50;0.90;;;0.87;;
36593;SDS011;22603;47.900;8.146;2022-09-27T09:50:42;2.10;;;0.80;;
36593;SDS011;22603;47.900;8.146;2022-09-27T09:53:35;0.60;;;0.60;;
36593;SDS011;22603;47.900;8.146;2022-09-27T09:56:27;2.40;;;0.87;;
36593;SDS011;22603;47.900;8.146;2022-09-27T09:59:18;0.70;;;0.70;;
36593;SDS011;22603;47.900;8.146;2022-09-27T10:02:18;3.47;;;1.00;;
36593;SDS011;22603;47.900;8.146;2022-09-27T10:05:12;0.70;;;0.60;;
36593;SDS011;22603;47.900;8.146;2022-09-27T10:08:02;0.60;;;0.60;;
36593;SDS011;22603;47.900;8.146;2022-09-27T10:10:53;1.13;;;0.80;;
36593;SDS011;22603;47.900;8.146;2022-09-27T10:13:39;0.60;;;0.53;;
36593;SDS011;22603;47.900;8.146;2022-09-27T10:16:28;4.13;;;0.80;;
36593;SDS011;22603;47.900;8.146;2022-09-27T10:19:16;3.70;;;0.60;;
36593;SDS011;22603;47.900;8.146;2022-09-27T10:22:11;2.17;;;0.70;;
36593;SDS011;22603;47.900;8.146;2022-09-27T10:25:02;4.40;;;0.90;;
36593;SDS011;22603;47.900;8.146;2022-09-27T10:27:52;2.53;;;0.80;;
36593;SDS011;22603;47.900;8.146;2022-09-27T10:30:41;4.97;;;0.77;;
36593;SDS011;22603;47.900;8.146;2022-09-27T10:33:29;2.10;;;0.90;;
36593;SDS011;22603;47.900;8.146;2022-09-27T10:36:21;2.03;;;0.70;;
36593;SDS011;22603;47.900;8.146;2022-09-27T10:39:19;4.20;;;0.57;;
36593;SDS011;22603;47.900;8.146;2022-09-27T10:42:18;2.27;;;0.70;;
36593;SDS011;22603;47.900;8.146;2022-09-27T10:45:19;3.33;;;0.80;;
36593;SDS011;22603;47.900;8.146;2022-09-27T10:48:17;3.90;;;0.80;;
36593;SDS011;22603;47.900;8.146;2022-09-27T10:51:18;0.50;;;0.50;;
36593;SDS011;22603;47.900;8.146;2022-09-27T10:54:17;0.90;;;0.60;;
36593;SDS011;22603;47.900;8.146;2022-09-27T10:57:15;2.67;;;0.93;;
36593;SDS011;22603;47.900;8.146;2022-09-27T11:00:05;0.60;;;0.60;;
36593;SDS011;22603;47.900;8.146;2022-09-27T11:03:03;1.00;;;0.67;;
36593;SDS011;22603;47.900;8.146;2022-09-27T11:05:52;0.87;;;0.50;;
36593;SDS011;22603;47.900;8.146;2022-09-27T11:08:41;1.27;;;0.77;;
36593;SDS011;22603;47.900;8.146;2022-09-27T11:11:29;1.07;;;0.57;;
36593;SDS011;22603;47.900;8.146;2022-09-27T11:14:17;2.90;;;0.80;;
36593;SDS011;22603;47.900;8.146;2022-09-27T11:17:07;0.70;;;0.63;;
36593;SDS011;22603;47.900;8.146;2022-09-27T11:20:11;0.90;;;0.47;;
36593;SDS011;22603;47.900;8.146;2022-09-27T11:26:24;1.43;;;0.60;;
36593;SDS011;22603;47.900;8.146;2022-09-27T11:29:21;1.27;;;0.50;;
36593;SDS011;22603;47.900;8.146;2022-09-27T11:32:19;2.53;;;0.70;;
36593;SDS011;22603;47.900;8.146;2022-09-27T11:35:19;1.23;;;0.83;;
36593;SDS011;22603;47.900;8.146;2022-09-27T11:38:28;1.67;;;0.83;;
36593;SDS011;22603;47.900;8.146;2022-09-27T11:41:44;2.13;;;0.80;;
36593;SDS011;22603;47.900;8.146;2022-09-27T11:44:53;0.80;;;0.80;;
36593;SDS011;22603;47.900;8.146;2022-09-27T11:48:12;1.10;;;0.60;;
36593;SDS011;22603;47.900;8.146;2022-09-27T11:51:14;1.47;;;0.70;;
36593;SDS011;22603;47.900;8.146;2022-09-27T11:54:20;2.27;;;0.90;;
36593;SDS011;22603;47.900;8.146;2022-09-27T11:57:18;1.90;;;0.70;;
36593;SDS011;22603;47.900;8.146;2022-09-27T12:00:17;2.60;;;0.97;;
36593;SDS011;22603;47.900;8.146;2022-09-27T12:06:33;4.23;;;0.60;;
36593;SDS011;22603;47.900;8.146;2022-09-27T12:09:29;3.50;;;0.83;;
36593;SDS011;22603;47.900;8.146;2022-09-27T12:12:20;1.00;;;0.70;;
36593;SDS011;22603;47.900;8.146;2022-09-27T12:15:12;0.50;;;0.50;;
36593;SDS011;22603;47.900;8.146;2022-09-27T12:18:08;0.77;;;0.60;;
36593;SDS011;22603;47.900;8.146;2022-09-27T12:20:59;0.53;;;0.50;;
36593;SDS011;22603;47.900;8.146;2022-09-27T12:23:48;0.40;;;0.40;;
36593;SDS011;22603;47.900;8.146;2022-09-27T12:26:39;0.67;;;0.30;;
36593;SDS011;22603;47.900;8.146;2022-09-27T12:29:29;0.50;;;0.50;;
36593;SDS011;22603;47.900;8.146;2022-09-27T12:32:21;0.70;;;0.70;;
36593;SDS011;22603;47.900;8.146;2022-09-27T12:35:14;0.50;;;0.50;;
36593;SDS011;22603;47.900;8.146;2022-09-27T12:38:05;0.53;;;0.47;;
36593;SDS011;22603;47.900;8.146;2022-09-27T12:40:57;0.50;;;0.50;;
36593;SDS011;22603;47.900;8.146;2022-09-27T12:43:47;0.87;;;0.60;;
36593;SDS011;22603;47.900;8.146;2022-09-27T12:46:39;1.60;;;0.70;;
36593;SDS011;22603;47.900;8.146;2022-09-27T12:49:39;1.03;;;0.60;;
36593;SDS011;22603;47.900;8.146;2022-09-27T12:52:33;1.23;;;0.77;;
36593;SDS011;22603;47.900;8.146;2022-09-27T12:55:40;1.60;;;0.67;;
36593;SDS011;22603;47.900;8.146;2022-09-27T13:06:18;3.87;;;0.70;;
36593;SDS011;22603;47.900;8.146;2022-09-27T13:12:33;0.83;;;0.60;;
36593;SDS011;22603;47.900;8.146;2022-09-27T13:15:24;3.67;;;0.57;;
36593;SDS011;22603;47.900;8.146;2022-09-27T13:18:31;1.80;;;0.73;;
36593;SDS011;22603;47.900;8.146;2022-09-27T13:21:53;2.53;;;0.70;;
36593;SDS011;22603;47.900;8.146;2022-09-27T13:24:43;2.40;;;0.67;;
36593;SDS011;22603;47.900;8.146;2022-09-27T13:27:36;0.50;;;0.50;;
36593;SDS011;22603;47.900;8.146;2022-09-27T13:33:38;0.87;;;0.73;;
36593;SDS011;22603;47.900;8.146;2022-09-27T13:36:30;0.77;;;0.57;;
36593;SDS011;22603;47.900;8.146;2022-09-27T13:39:19;1.00;;;0.70;;
36593;SDS011;22603;47.900;8.146;2022-09-27T13:42:09;1.63;;;0.80;;
36593;SDS011;22603;47.900;8.146;2022-09-27T13:45:17;1.60;;;0.60;;
36593;SDS011;22603;47.900;8.146;2022-09-27T13:48:08;3.97;;;0.80;;
36593;SDS011;22603;47.900;8.146;2022-09-27T13:51:03;0.80;;;0.43;;
36593;SDS011;22603;47.900;8.146;2022-09-27T13:53:57;2.20;;;0.50;;
36593;SDS011;22603;47.900;8.146;2022-09-27T13:56:50;1.37;;;0.47;;
36593;SDS011;22603;47.900;8.146;2022-09-27T13:59:40;3.03;;;0.70;;
36593;SDS011;22603;47.900;8.146;2022-09-27T14:02:37;0.30;;;0.30;;
36593;SDS011;22603;47.900;8.146;2022-09-27T14:05:29;0.57;;;0.57;;
36593;SDS011;22603;47.900;8.146;2022-09-27T14:08:22;0.73;;;0.40;;
36593;SDS011;22603;47.900;8.146;2022-09-27T14:11:14;1.97;;;0.73;;
36593;SDS011;22603;47.900;8.146;2022-09-27T14:14:12;1.00;;;0.70;;
36593;SDS011;22603;47.900;8.146;2022-09-27T14:17:02;1.00;;;0.70;;
36593;SDS011;22603;47.900;8.146;2022-09-27T14:19:54;0.87;;;0.50;;
36593;SDS011;22603;47.900;8.146;2022-09-27T14:22:41;2.43;;;0.60;;
36593;SDS011;22603;47.900;8.146;2022-09-27T14:25:29;0.70;;;0.70;;
36593;SDS011;22603;47.900;8.146;2022-09-27T14:28:20;0.67;;;0.50;;
36593;SDS011;22603;47.900;8.146;2022-09-27T14:31:12;1.67;;;0.50;;
36593;SDS011;22603;47.900;8.146;2022-09-27T14:34:04;0.50;;;0.50;;
36593;SDS011;22603;47.900;8.146;2022-09-27T14:36:53;2.37;;;0.60;;
36593;SDS011;22603;47.900;8.146;2022-09-27T14:39:59;0.40;;;0.40;;
36593;SDS011;22603;47.900;8.146;2022-09-27T14:42:53;2.10;;;0.80;;
36593;SDS011;22603;47.900;8.146;2022-09-27T14:45:41;0.67;;;0.67;;
36593;SDS011;22603;47.900;8.146;2022-09-27T14:48:31;0.80;;;0.70;;
36593;SDS011;22603;47.900;8.146;2022-09-27T14:51:20;1.67;;;0.80;;
36593;SDS011;22603;47.900;8.146;2022-09-27T14:54:17;1.17;;;0.70;;
36593;SDS011;22603;47.900;8.146;2022-09-27T14:57:06;0.57;;;0.50;;
36593;SDS011;22603;47.900;8.146;2022-09-27T14:59:54;0.47;;;0.47;;
36593;SDS011;22603;47.900;8.146;2022-09-27T15:02:43;0.77;;;0.40;;
36593;SDS011;22603;47.900;8.146;2022-09-27T15:05:31;0.47;;;0.47;;
36593;SDS011;22603;47.900;8.146;2022-09-27T15:08:19;0.47;;;0.40;;
36593;SDS011;22603;47.900;8.146;2022-09-27T15:11:09;0.30;;;0.30;;
36593;SDS011;22603;47.900;8.146;2022-09-27T15:13:56;0.37;;;0.37;;
36593;SDS011;22603;47.900;8.146;2022-09-27T15:16:47;0.40;;;0.40;;
36593;SDS011;22603;47.900;8.146;2022-09-27T15:19:36;0.50;;;0.50;;
36593;SDS011;22603;47.900;8.146;2022-09-27T15:22:30;1.50;;;0.50;;
36593;SDS011;22603;47.900;8.146;2022-09-27T15:25:23;1.33;;;1.03;;
36593;SDS011;22603;47.900;8.146;2022-09-27T15:28:18;0.30;;;0.30;;
36593;SDS011;22603;47.900;8.146;2022-09-27T15:31:05;0.70;;;0.60;;
36593;SDS011;22603;47.900;8.146;2022-09-27T15:33:55;0.60;;;0.40;;
36593;SDS011;22603;47.900;8.146;2022-09-27T15:36:49;0.80;;;0.50;;
36593;SDS011;22603;47.900;8.146;2022-09-27T15:39:39;0.53;;;0.43;;
36593;SDS011;22603;47.900;8.146;2022-09-27T15:42:26;0.30;;;0.30;;
36593;SDS011;22603;47.900;8.146;2022-09-27T15:45:25;2.10;;;0.60;;
36593;SDS011;22603;47.900;8.146;2022-09-27T15:48:14;1.67;;;0.83;;
36593;SDS011;22603;47.900;8.146;2022-09-27T15:51:03;0.50;;;0.40;;
36593;SDS011;22603;47.900;8.146;2022-09-27T15:54:24;0.80;;;0.40;;
36593;SDS011;22603;47.900;8.146;2022-09-27T15:57:14;0.40;;;0.40;;
36593;SDS011;22603;47.900;8.146;2022-09-27T16:00:00;0.47;;;0.40;;
36593;SDS011;22603;47.900;8.146;2022-09-27T16:02:48;2.33;;;0.40;;
36593;SDS011;22603;47.900;8.146;2022-09-27T16:05:36;0.70;;;0.50;;
36593;SDS011;22603;47.900;8.146;2022-09-27T16:08:24;1.03;;;0.50;;
36593;SDS011;22603;47.900;8.146;2022-09-27T16:11:13;0.93;;;0.40;;
36593;SDS011;22603;47.900;8.146;2022-09-27T16:14:01;0.83;;;0.40;;
36593;SDS011;22603;47.900;8.146;2022-09-27T16:16:49;0.73;;;0.50;;
36593;SDS011;22603;47.900;8.146;2022-09-27T16:19:38;0.87;;;0.50;;
36593;SDS011;22603;47.900;8.146;2022-09-27T16:22:27;0.40;;;0.40;;
36593;SDS011;22603;47.900;8.146;2022-09-27T16:25:16;0.40;;;0.40;;
36593;SDS011;22603;47.900;8.146;2022-09-27T16:28:03;0.40;;;0.40;;
36593;SDS011;22603;47.900;8.146;2022-09-27T16:30:50;1.23;;;0.43;;
36593;SDS011;22603;47.900;8.146;2022-09-27T16:33:37;0.40;;;0.40;;
36593;SDS011;22603;47.900;8.146;2022-09-27T16:36:24;3.20;;;0.50;;
36593;SDS011;22603;47.900;8.146;2022-09-27T16:39:12;1.47;;;0.60;;
36593;SDS011;22603;47.900;8.146;2022-09-27T16:42:00;0.50;;;0.50;;
36593;SDS011;22603;47.900;8.146;2022-09-27T16:44:49;0.30;;;0.30;;
36593;SDS011;22603;47.900;8.146;2022-09-27T16:47:37;0.90;;;0.50;;
36593;SDS011;22603;47.900;8.146;2022-09-27T16:50:24;0.50;;;0.50;;
36593;SDS011;22603;47.900;8.146;2022-09-27T16:53:28;0.80;;;0.47;;
36593;SDS011;22603;47.900;8.146;2022-09-27T16:56:15;1.60;;;0.50;;
36593;SDS011;22603;47.900;8.146;2022-09-27T16:59:05;0.50;;;0.50;;
36593;SDS011;22603;47.900;8.146;2022-09-27T17:01:52;1.33;;;0.60;;
36593;SDS011;22603;47.900;8.146;2022-09-27T17:04:41;1.70;;;0.70;;
36593;SDS011;22603;47.900;8.146;2022-09-27T17:07:28;0.80;;;0.60;;
36593;SDS011;22603;47.900;8.146;2022-09-27T17:10:15;0.70;;;0.43;;
36593;SDS011;22603;47.900;8.146;2022-09-27T17:13:02;0.50;;;0.50;;
36593;SDS011;22603;47.900;8.146;2022-09-27T17:15:52;0.43;;;0.43;;
36593;SDS011;22603;47.900;8.146;2022-09-27T17:18:39;1.03;;;0.50;;
36593;SDS011;22603;47.900;8.146;2022-09-27T17:21:27;0.83;;;0.50;;
36593;SDS011;22603;47.900;8.146;2022-09-27T17:24:19;0.97;;;0.70;;
36593;SDS011;22603;47.900;8.146;2022-09-27T17:27:06;1.97;;;0.50;;
36593;SDS011;22603;47.900;8.146;2022-09-27T17:29:53;0.60;;;0.57;;
36593;SDS011;22603;47.900;8.146;2022-09-27T17:32:42;1.50;;;0.57;;
36593;SDS011;22603;47.900;8.146;2022-09-27T17:35:29;0.90;;;0.70;;
36593;SDS011;22603;47.900;8.146;2022-09-27T17:38:16;0.83;;;0.60;;